Time;durP1;ratioP1;P1;durP2;ratioP2;P2;SDS_P1;SDS_P2;PMS_P1;PMS_P2;Temp;Humidity;BMP_temperature;BMP_pressure;BME280_temperature;BME280_humidity;BME280_pressure;Samples;Min_cycle;Max_cycle;Signal;HPM_P1;HPM_P2
2022/03/30 00:02:22;;;;;;;41.57;25.40;;;8.60;99.90;;;;;;5049770;28;20221;-51
2022/03/30 00:04:50;;;;;;;40.30;24.43;;;8.60;99.90;;;;;;5050449;28;20687;-50
2022/03/30 00:07:18;;;;;;;39.53;24.87;;;8.60;99.90;;;;;;5050898;28;20205;-51
2022/03/30 00:09:47;;;;;;;38.77;25.07;;;8.60;99.90;;;;;;5050508;28;20719;-50
2022/03/30 00:12:16;;;;;;;36.87;25.03;;;8.60;99.90;;;;;;5050138;28;20204;-51
2022/03/30 00:14:44;;;;;;;37.67;24.00;;;8.60;99.90;;;;;;5050562;28;20205;-51
2022/03/30 00:17:12;;;;;;;41.43;24.80;;;8.70;99.90;;;;;;5050845;28;20205;-50
2022/03/30 00:19:40;;;;;;;37.73;24.97;;;8.70;99.90;;;;;;5050685;28;20229;-51
2022/03/30 00:22:09;;;;;;;37.67;24.47;;;8.70;99.90;;;;;;5050229;28;20230;-51
2022/03/30 00:24:38;;;;;;;37.90;23.80;;;8.70;99.90;;;;;;5050563;28;20259;-50
2022/03/30 00:27:07;;;;;;;37.33;23.50;;;8.80;99.90;;;;;;5050705;28;20205;-51
2022/03/30 00:29:36;;;;;;;38.17;24.43;;;8.80;99.90;;;;;;5050389;28;20241;-51
2022/03/30 00:32:05;;;;;;;44.73;23.80;;;8.80;99.90;;;;;;5049651;28;20690;-51
2022/03/30 00:34:34;;;;;;;37.77;24.77;;;8.70;99.90;;;;;;5050351;28;20214;-51
2022/03/30 00:37:02;;;;;;;39.93;24.43;;;8.70;99.90;;;;;;5050609;28;20202;-51
2022/03/30 00:39:30;;;;;;;40.13;25.47;;;8.80;99.90;;;;;;5049982;28;20230;-51
2022/03/30 00:41:58;;;;;;;37.77;25.60;;;8.80;99.90;;;;;;5050051;28;20221;-52
2022/03/30 00:44:26;;;;;;;41.10;26.10;;;8.80;99.90;;;;;;5050372;28;20275;-51
2022/03/30 00:46:56;;;;;;;42.27;26.23;;;8.70;99.90;;;;;;5050567;28;20247;-51
2022/03/30 00:49:24;;;;;;;42.87;26.37;;;8.70;99.90;;;;;;5050246;28;20230;-51
2022/03/30 00:51:52;;;;;;;39.30;26.43;;;8.60;99.90;;;;;;5050214;28;20210;-51
2022/03/30 00:54:20;;;;;;;39.57;25.47;;;8.60;99.90;;;;;;5050685;28;20209;-51
2022/03/30 00:56:48;;;;;;;39.43;25.57;;;8.60;99.90;;;;;;5054287;28;20259;-51
2022/03/30 00:59:17;;;;;;;41.47;26.17;;;8.60;99.90;;;;;;5053868;28;20263;-51
2022/03/30 01:01:45;;;;;;;43.97;26.23;;;8.60;99.90;;;;;;5052952;28;20213;-51
2022/03/30 01:04:14;;;;;;;41.70;26.63;;;8.60;99.90;;;;;;5053390;28;20210;-51
2022/03/30 01:06:43;;;;;;;42.90;26.77;;;8.60;99.90;;;;;;5053023;28;20256;-51
2022/03/30 01:09:11;;;;;;;40.23;26.90;;;8.60;99.90;;;;;;5053746;28;20236;-51
2022/03/30 01:11:39;;;;;;;44.73;27.07;;;8.70;99.90;;;;;;5053947;28;20255;-51
2022/03/30 01:14:07;;;;;;;41.83;26.90;;;8.70;99.90;;;;;;5037179;28;20249;-51
2022/03/30 01:16:35;;;;;;;40.67;27.07;;;8.70;99.90;;;;;;5034083;28;20268;-51
2022/03/30 01:19:05;;;;;;;44.00;28.37;;;8.70;99.90;;;;;;5033171;28;20230;-51
2022/03/30 01:21:36;;;;;;;44.83;27.97;;;8.60;99.90;;;;;;5033873;28;20229;-51
2022/03/30 01:24:05;;;;;;;43.33;26.73;;;8.60;99.90;;;;;;5032197;28;20230;-51
2022/03/30 01:26:33;;;;;;;46.43;28.80;;;8.60;99.90;;;;;;5033867;28;20203;-51
2022/03/30 01:32:24;;;;;;;43.53;28.20;;;8.60;99.90;;;;;;5033141;28;20230;-51
2022/03/30 01:34:36;;;;;;;46.70;28.90;;;8.50;99.90;;;;;;5033090;28;20295;-51
2022/03/30 01:37:07;;;;;;;44.10;28.70;;;8.40;99.90;;;;;;5049226;28;20206;-51
2022/03/30 01:39:35;;;;;;;48.07;28.87;;;8.40;99.90;;;;;;5053631;28;20226;-51
2022/03/30 01:42:04;;;;;;;41.40;28.53;;;8.40;99.90;;;;;;5052899;28;20210;-51
2022/03/30 01:44:32;;;;;;;45.13;28.77;;;8.50;99.90;;;;;;5052331;28;20237;-51
2022/03/30 01:47:00;;;;;;;43.23;28.80;;;8.40;99.90;;;;;;5052988;28;20236;-51
2022/03/30 01:49:29;;;;;;;45.23;29.33;;;8.40;99.90;;;;;;5052853;28;20258;-51
2022/03/30 01:51:59;;;;;;;40.43;28.57;;;8.50;99.90;;;;;;5052566;28;20213;-51
2022/03/30 01:54:29;;;;;;;46.13;28.20;;;8.50;99.90;;;;;;5053788;28;20201;-51
2022/03/30 01:56:57;;;;;;;46.00;30.00;;;8.40;99.90;;;;;;5053329;28;20210;-51
2022/03/30 01:59:26;;;;;;;43.80;29.23;;;8.40;99.90;;;;;;5052825;28;20229;-51
2022/03/30 02:01:54;;;;;;;46.97;31.33;;;8.40;99.90;;;;;;5052353;28;20260;-51
2022/03/30 02:04:24;;;;;;;46.90;30.23;;;8.40;99.90;;;;;;5052458;28;20225;-51
2022/03/30 02:06:52;;;;;;;49.70;31.37;;;8.40;99.90;;;;;;5051934;28;20209;-51
2022/03/30 02:09:20;;;;;;;45.73;30.17;;;8.30;99.90;;;;;;5052455;28;20711;-51
2022/03/30 02:11:51;;;;;;;48.60;30.97;;;8.30;99.90;;;;;;5052524;28;20202;-51
2022/03/30 02:14:19;;;;;;;50.23;29.80;;;8.30;99.90;;;;;;5052917;28;20198;-51
2022/03/30 02:16:47;;;;;;;46.97;30.23;;;8.20;99.90;;;;;;5052445;28;20581;-51
2022/03/30 02:19:15;;;;;;;48.97;30.70;;;8.20;99.90;;;;;;5052634;28;20641;-50
2022/03/30 02:21:44;;;;;;;50.57;30.47;;;8.10;99.90;;;;;;5051928;28;20214;-51
2022/03/30 02:24:12;;;;;;;46.70;30.97;;;8.10;99.90;;;;;;5051989;28;20218;-51
2022/03/30 02:26:40;;;;;;;48.83;31.70;;;8.10;99.90;;;;;;5052090;28;20205;-50
2022/03/30 02:29:10;;;;;;;48.10;31.37;;;8.00;99.90;;;;;;5052436;28;20226;-51
2022/03/30 02:31:38;;;;;;;50.27;32.13;;;8.00;99.90;;;;;;5051647;28;20631;-51
2022/03/30 02:34:06;;;;;;;52.47;32.27;;;8.00;99.90;;;;;;5052138;28;20267;-51
2022/03/30 02:36:34;;;;;;;50.80;32.83;;;8.00;99.90;;;;;;5040098;28;20260;-51
2022/03/30 02:39:02;;;;;;;52.73;32.57;;;8.00;99.90;;;;;;5032336;28;20226;-51
2022/03/30 02:41:30;;;;;;;52.20;32.57;;;7.90;99.90;;;;;;5032449;28;20300;-51
2022/03/30 02:43:58;;;;;;;53.07;30.87;;;7.90;99.90;;;;;;5031704;28;20279;-51
2022/03/30 02:46:28;;;;;;;51.10;31.00;;;7.90;99.90;;;;;;5032353;28;20262;-51
2022/03/30 02:48:56;;;;;;;56.70;31.50;;;7.90;99.90;;;;;;5031925;28;20608;-51
2022/03/30 02:51:27;;;;;;;49.93;30.73;;;7.90;99.90;;;;;;5032014;28;20199;-51
2022/03/30 02:53:55;;;;;;;51.93;32.57;;;7.80;99.90;;;;;;5031525;28;20241;-51
2022/03/30 02:56:24;;;;;;;51.93;32.07;;;7.90;99.90;;;;;;5031997;28;20206;-50
2022/03/30 02:58:52;;;;;;;52.63;32.17;;;7.80;99.90;;;;;;5033413;28;20234;-51
2022/03/30 03:01:20;;;;;;;51.23;32.27;;;7.70;99.90;;;;;;5051345;28;20228;-51
2022/03/30 03:03:50;;;;;;;52.73;29.97;;;7.80;99.90;;;;;;5051181;28;20748;-51
2022/03/30 03:06:18;;;;;;;59.37;33.07;;;7.70;99.90;;;;;;5051141;28;20687;-51
2022/03/30 03:08:46;;;;;;;55.17;32.50;;;7.70;99.90;;;;;;5051730;28;20241;-51
2022/03/30 03:11:14;;;;;;;51.43;31.67;;;7.70;99.90;;;;;;5051492;28;20205;-51
2022/03/30 03:13:42;;;;;;;45.90;30.47;;;7.60;99.90;;;;;;5051055;28;20219;-51
2022/03/30 03:16:13;;;;;;;51.20;32.47;;;7.60;99.90;;;;;;5051561;28;20210;-51
2022/03/30 03:18:42;;;;;;;51.83;31.60;;;7.60;99.90;;;;;;5051340;28;20221;-51
2022/03/30 03:21:11;;;;;;;54.47;33.57;;;7.50;99.90;;;;;;5051953;28;20201;-51
2022/03/30 03:23:41;;;;;;;54.57;31.77;;;7.40;99.90;;;;;;5050371;28;20225;-51
2022/03/30 03:26:09;;;;;;;50.87;32.17;;;7.40;99.90;;;;;;5051708;28;20583;-51
2022/03/30 03:28:37;;;;;;;56.47;32.87;;;7.40;99.90;;;;;;5050828;28;20229;-51
2022/03/30 03:31:05;;;;;;;53.43;31.67;;;7.40;99.90;;;;;;5051263;28;20217;-51
2022/03/30 03:33:34;;;;;;;53.73;31.50;;;7.40;99.90;;;;;;5051070;28;20256;-51
2022/03/30 03:36:02;;;;;;;52.37;33.33;;;7.30;99.90;;;;;;5051213;28;20227;-51
2022/03/30 03:38:31;;;;;;;54.33;31.00;;;7.30;99.90;;;;;;5051187;28;20229;-51
2022/03/30 03:41:00;;;;;;;55.83;33.10;;;7.30;99.90;;;;;;5051101;28;20213;-51
2022/03/30 03:43:28;;;;;;;53.83;32.63;;;7.20;99.90;;;;;;5050763;28;20258;-51
2022/03/30 03:45:56;;;;;;;53.53;31.70;;;7.20;99.90;;;;;;5051165;28;20237;-51
2022/03/30 03:48:24;;;;;;;56.53;34.00;;;7.20;99.90;;;;;;5051281;28;20225;-51
2022/03/30 03:50:52;;;;;;;54.47;33.57;;;7.20;99.90;;;;;;5050597;28;20582;-51
2022/03/30 03:53:21;;;;;;;52.00;31.80;;;7.10;99.90;;;;;;5051215;28;20209;-51
2022/03/30 03:55:50;;;;;;;52.77;31.97;;;7.10;99.90;;;;;;5050284;28;20737;-51
2022/03/30 03:58:18;;;;;;;59.13;32.50;;;7.10;99.90;;;;;;5050874;28;20278;-51
2022/03/30 04:00:46;;;;;;;58.17;32.40;;;7.10;99.90;;;;;;5050570;28;20755;-51
2022/03/30 04:03:15;;;;;;;53.40;32.27;;;7.00;99.90;;;;;;5050533;28;20473;-51
2022/03/30 04:05:43;;;;;;;57.17;33.13;;;7.00;99.90;;;;;;5050695;28;20229;-51
2022/03/30 04:08:11;;;;;;;54.93;32.23;;;7.00;99.90;;;;;;5050591;28;20217;-51
2022/03/30 04:10:39;;;;;;;50.73;31.93;;;7.10;99.90;;;;;;5050946;28;20217;-50
2022/03/30 04:13:09;;;;;;;52.87;31.43;;;7.10;99.90;;;;;;5050182;28;20213;-51
2022/03/30 04:15:38;;;;;;;55.13;32.33;;;7.20;99.90;;;;;;5030550;28;20853;-51
2022/03/30 04:18:08;;;;;;;49.20;31.17;;;7.10;99.90;;;;;;5030882;28;20246;-51
2022/03/30 04:20:37;;;;;;;49.53;30.87;;;7.10;99.90;;;;;;5030409;28;20213;-50
2022/03/30 04:23:05;;;;;;;49.70;29.77;;;7.10;99.90;;;;;;5029557;28;20213;-51
2022/03/30 04:25:34;;;;;;;49.57;30.57;;;7.10;99.90;;;;;;5030442;28;20773;-51
2022/03/30 04:28:02;;;;;;;52.60;30.90;;;7.10;99.90;;;;;;5041886;28;20266;-51
2022/03/30 04:30:31;;;;;;;51.73;31.10;;;7.10;99.90;;;;;;5052007;28;20671;-51
2022/03/30 04:32:59;;;;;;;52.93;31.07;;;7.10;99.90;;;;;;5054068;28;20258;-51
2022/03/30 04:35:27;;;;;;;55.87;32.17;;;7.00;99.90;;;;;;5054609;28;20205;-51
2022/03/30 04:37:56;;;;;;;49.90;30.33;;;7.10;99.90;;;;;;5054521;28;20205;-51
2022/03/30 04:40:26;;;;;;;48.67;30.77;;;7.10;99.90;;;;;;5054543;28;20279;-51
2022/03/30 04:42:54;;;;;;;45.53;29.90;;;7.20;99.90;;;;;;5053952;28;20673;-51
2022/03/30 04:45:23;;;;;;;47.90;30.40;;;7.20;99.90;;;;;;5054439;28;20276;-50
2022/03/30 04:47:54;;;;;;;45.73;30.23;;;7.20;99.90;;;;;;5054037;28;20255;-51
2022/03/30 04:50:26;;;;;;;51.97;31.13;;;7.20;99.90;;;;;;5054629;28;20233;-51
2022/03/30 04:52:56;;;;;;;51.70;30.73;;;7.20;99.90;;;;;;5053861;28;20213;-51
2022/03/30 04:55:24;;;;;;;53.37;30.80;;;7.20;99.90;;;;;;5054262;28;20209;-51
2022/03/30 04:57:53;;;;;;;48.07;29.93;;;7.30;99.90;;;;;;5054081;28;20263;-51
2022/03/30 05:00:21;;;;;;;47.80;29.67;;;7.30;99.90;;;;;;5054070;28;20279;-52
2022/03/30 05:02:49;;;;;;;43.13;28.20;;;7.30;99.90;;;;;;5053594;28;20234;-51
2022/03/30 05:05:19;;;;;;;47.33;28.13;;;7.40;99.90;;;;;;5053723;28;20584;-51
2022/03/30 05:07:47;;;;;;;50.53;30.33;;;7.40;99.90;;;;;;5053973;28;20339;-52
2022/03/30 05:10:15;;;;;;;50.70;30.67;;;7.30;99.90;;;;;;5053816;28;20233;-51
2022/03/30 05:12:44;;;;;;;51.70;30.33;;;7.30;99.90;;;;;;5053038;28;20266;-52
2022/03/30 05:15:12;;;;;;;45.13;28.83;;;7.30;99.90;;;;;;5053336;28;20212;-52
2022/03/30 05:17:43;;;;;;;48.20;29.60;;;7.30;99.90;;;;;;5053654;28;20208;-51
2022/03/30 05:20:13;;;;;;;50.43;28.90;;;7.30;99.90;;;;;;5050422;28;20229;-52
2022/03/30 05:22:43;;;;;;;46.47;28.37;;;7.40;99.90;;;;;;5036432;28;20214;-51
2022/03/30 05:25:12;;;;;;;46.27;28.93;;;7.30;99.90;;;;;;5049817;28;20745;-51
2022/03/30 05:27:41;;;;;;;48.87;29.93;;;7.20;99.90;;;;;;5045372;28;20214;-50
2022/03/30 05:30:10;;;;;;;50.20;29.17;;;7.20;99.90;;;;;;5035583;28;20234;-51
2022/03/30 05:32:40;;;;;;;50.50;29.37;;;7.20;99.90;;;;;;5033791;28;20214;-51
2022/03/30 05:35:08;;;;;;;46.43;28.73;;;7.20;99.90;;;;;;5033054;28;20202;-51
2022/03/30 05:37:36;;;;;;;47.80;28.87;;;7.20;99.90;;;;;;5033447;28;20205;-51
2022/03/30 05:40:09;;;;;;;44.60;28.17;;;7.20;99.90;;;;;;5033135;28;20253;-51
2022/03/30 05:42:37;;;;;;;45.93;27.17;;;7.20;99.90;;;;;;5031592;28;20198;-51
2022/03/30 05:45:07;;;;;;;40.20;27.50;;;7.20;99.90;;;;;;5032319;28;20222;-51
2022/03/30 05:47:35;;;;;;;44.07;27.73;;;7.20;99.90;;;;;;5033185;28;20214;-51
2022/03/30 05:50:03;;;;;;;47.60;28.57;;;7.20;99.90;;;;;;5033052;28;20284;-51
2022/03/30 05:52:31;;;;;;;43.50;28.27;;;7.20;99.90;;;;;;5032400;28;20686;-52
2022/03/30 05:54:59;;;;;;;46.57;30.70;;;7.20;99.90;;;;;;5032874;28;20932;-51
2022/03/30 05:57:29;;;;;;;47.40;29.73;;;7.20;99.90;;;;;;5044331;28;20255;-51
2022/03/30 05:59:58;;;;;;;47.70;29.60;;;7.20;99.90;;;;;;5052922;28;20226;-51
2022/03/30 06:02:26;;;;;;;50.57;29.70;;;7.30;99.90;;;;;;5052437;28;20217;-52
2022/03/30 06:04:56;;;;;;;48.20;29.30;;;7.30;99.90;;;;;;5044779;28;20637;-50
2022/03/30 06:07:24;;;;;;;47.67;29.73;;;7.30;99.90;;;;;;5033225;28;20206;-51
2022/03/30 06:09:52;;;;;;;47.40;29.33;;;7.40;99.90;;;;;;5049207;28;20332;-51
2022/03/30 06:12:20;;;;;;;45.33;29.67;;;7.40;99.90;;;;;;5052646;28;20259;-51
2022/03/30 06:14:50;;;;;;;50.20;30.50;;;7.40;99.90;;;;;;5051722;28;20728;-50
2022/03/30 06:17:18;;;;;;;51.87;31.97;;;7.40;99.90;;;;;;5052403;28;20210;-51
2022/03/30 06:19:49;;;;;;;49.53;30.97;;;7.40;99.90;;;;;;5052123;28;20722;-51
2022/03/30 06:22:17;;;;;;;50.67;30.03;;;7.40;99.90;;;;;;5052441;28;20263;-51
2022/03/30 06:24:47;;;;;;;50.43;30.77;;;7.60;99.90;;;;;;5052343;28;20209;-51
2022/03/30 06:27:17;;;;;;;48.13;31.03;;;7.60;99.90;;;;;;5052214;28;20308;-51
2022/03/30 06:29:45;;;;;;;52.10;30.73;;;7.60;99.90;;;;;;5051982;28;20240;-51
2022/03/30 06:32:15;;;;;;;51.47;31.70;;;7.60;99.90;;;;;;5051760;28;20217;-51
2022/03/30 06:34:43;;;;;;;48.97;31.50;;;7.60;99.90;;;;;;5052056;28;20201;-51
2022/03/30 06:37:11;;;;;;;48.80;30.50;;;7.60;99.90;;;;;;5052496;28;20202;-51
2022/03/30 06:39:39;;;;;;;50.90;31.33;;;7.70;99.90;;;;;;5051920;28;20710;-51
2022/03/30 06:42:09;;;;;;;51.30;30.50;;;7.60;99.90;;;;;;5051819;28;20259;-51
2022/03/30 06:44:38;;;;;;;49.57;31.47;;;7.70;99.90;;;;;;5051665;28;20259;-51
2022/03/30 06:47:07;;;;;;;56.17;32.70;;;7.70;99.90;;;;;;5052328;28;20257;-51
2022/03/30 06:49:38;;;;;;;53.07;32.50;;;7.80;99.90;;;;;;5047075;28;20271;-51
2022/03/30 06:52:06;;;;;;;50.57;31.70;;;7.70;99.90;;;;;;5034724;28;20210;-51
2022/03/30 06:54:35;;;;;;;53.00;32.87;;;7.80;99.90;;;;;;5031059;28;20257;-51
2022/03/30 06:57:04;;;;;;;49.87;33.50;;;7.90;99.90;;;;;;5032972;28;20210;-51
2022/03/30 06:59:33;;;;;;;56.30;33.33;;;7.90;99.90;;;;;;5038819;28;20299;-51
2022/03/30 07:02:01;;;;;;;52.60;32.17;;;8.00;99.90;;;;;;5051393;28;20625;-51
2022/03/30 07:04:29;;;;;;;52.30;32.97;;;8.00;99.90;;;;;;5051702;28;20210;-51
2022/03/30 07:12:31;;;;;;;53.43;33.23;;;8.00;99.90;;;;;;5051003;28;20190;-51
2022/03/30 07:15:00;;;;;;;54.00;33.93;;;8.00;99.90;;;;;;5045404;28;20203;-51
2022/03/30 07:17:30;;;;;;;62.43;36.03;;;8.10;99.90;;;;;;5032587;28;20211;-51
2022/03/30 07:19:59;;;;;;;56.17;33.60;;;8.00;99.90;;;;;;5031206;28;20658;-51
2022/03/30 07:22:28;;;;;;;61.03;35.67;;;8.10;99.90;;;;;;5030708;28;20731;-51
2022/03/30 07:24:56;;;;;;;54.90;34.80;;;8.20;99.90;;;;;;5031694;28;20218;-51
2022/03/30 07:27:24;;;;;;;59.57;33.77;;;8.20;99.90;;;;;;5031673;28;20218;-52
2022/03/30 07:29:52;;;;;;;58.20;33.60;;;8.20;99.90;;;;;;5031446;28;20222;-51
2022/03/30 07:32:21;;;;;;;59.63;34.70;;;8.20;99.90;;;;;;5030768;28;20737;-52
2022/03/30 07:34:49;;;;;;;58.77;35.83;;;8.20;99.90;;;;;;5030891;28;20210;-52
2022/03/30 07:37:17;;;;;;;55.03;35.20;;;8.20;99.90;;;;;;5031222;28;20202;-51
2022/03/30 07:39:46;;;;;;;53.20;35.17;;;8.20;99.90;;;;;;5030626;28;20226;-51
2022/03/30 07:42:15;;;;;;;55.63;35.07;;;8.20;99.90;;;;;;5031019;28;20210;-50
2022/03/30 07:44:43;;;;;;;58.13;34.90;;;8.10;99.90;;;;;;5031333;28;20213;-52
2022/03/30 07:47:11;;;;;;;56.53;36.30;;;8.20;99.90;;;;;;5033542;28;20248;-51
2022/03/30 07:49:39;;;;;;;57.37;33.37;;;8.30;99.90;;;;;;5047057;28;20294;-51
2022/03/30 07:52:07;;;;;;;53.73;33.03;;;8.30;99.90;;;;;;5049769;28;20617;-51
2022/03/30 07:54:36;;;;;;;53.33;33.97;;;8.30;99.90;;;;;;5050761;28;20213;-51
2022/03/30 07:57:05;;;;;;;56.13;32.77;;;8.30;99.90;;;;;;5051051;28;20206;-51
2022/03/30 07:59:33;;;;;;;54.07;34.17;;;8.50;99.90;;;;;;5050572;28;20221;-51
2022/03/30 08:02:01;;;;;;;52.27;33.10;;;8.70;99.90;;;;;;5050969;28;20709;-51
2022/03/30 08:04:30;;;;;;;54.00;34.53;;;8.90;99.90;;;;;;5050206;28;20212;-51
2022/03/30 08:06:58;;;;;;;56.73;33.97;;;8.90;99.90;;;;;;5051008;28;20732;-51
2022/03/30 08:09:27;;;;;;;57.53;33.90;;;9.10;99.90;;;;;;5050545;28;20279;-51
2022/03/30 08:11:55;;;;;;;50.80;32.47;;;9.10;99.90;;;;;;5050490;28;20205;-52
2022/03/30 08:14:27;;;;;;;52.17;33.13;;;9.10;99.90;;;;;;5050591;28;20686;-51
2022/03/30 08:16:56;;;;;;;58.63;35.70;;;9.10;99.90;;;;;;5050674;28;20205;-51
2022/03/30 08:19:24;;;;;;;58.93;33.07;;;9.30;99.90;;;;;;5050386;28;20706;-51
2022/03/30 08:24:39;;;;;;;52.83;33.43;;;9.40;99.90;;;;;;5053523;28;20213;-50
2022/03/30 08:27:07;;;;;;;51.27;31.90;;;9.20;99.90;;;;;;5046810;28;20643;-52
2022/03/30 08:29:38;;;;;;;52.90;32.20;;;9.40;99.90;;;;;;5050251;28;20233;-52
2022/03/30 08:32:07;;;;;;;51.63;32.30;;;9.40;99.90;;;;;;5049736;28;20239;-53
2022/03/30 08:34:35;;;;;;;48.00;31.73;;;9.30;99.90;;;;;;5050060;28;20205;-52
2022/03/30 08:37:04;;;;;;;50.63;32.87;;;9.20;99.90;;;;;;5048952;28;20205;-52
2022/03/30 08:39:33;;;;;;;54.87;33.07;;;9.10;99.90;;;;;;5049862;28;20283;-52
2022/03/30 08:42:02;;;;;;;50.50;31.87;;;9.10;99.90;;;;;;5050080;28;20212;-52
2022/03/30 08:44:31;;;;;;;50.40;32.37;;;9.20;99.90;;;;;;5050129;28;20259;-52
2022/03/30 08:47:01;;;;;;;49.77;32.07;;;9.40;99.90;;;;;;5049997;28;20259;-52
2022/03/30 08:49:33;;;;;;;51.30;32.23;;;9.50;99.90;;;;;;5049758;28;20221;-52
2022/03/30 08:52:03;;;;;;;50.90;32.10;;;9.90;99.90;;;;;;5049939;28;20214;-51
2022/03/30 08:54:31;;;;;;;46.57;30.40;;;10.00;99.90;;;;;;5049648;28;20204;-52
2022/03/30 08:56:59;;;;;;;51.23;31.10;;;10.20;99.90;;;;;;5050055;28;20201;-51
2022/03/30 08:59:28;;;;;;;46.83;30.87;;;10.30;99.90;;;;;;5049502;28;20229;-51
2022/03/30 09:01:58;;;;;;;48.10;30.83;;;10.20;99.90;;;;;;5049575;28;20206;-56
2022/03/30 09:04:27;;;;;;;45.03;29.63;;;10.30;99.90;;;;;;5049156;28;20671;-51
2022/03/30 09:06:57;;;;;;;48.17;29.90;;;10.30;99.90;;;;;;5049679;28;20225;-51
2022/03/30 09:09:30;;;;;;;46.40;29.00;;;10.40;99.90;;;;;;5049767;28;20229;-52
2022/03/30 09:12:00;;;;;;;47.50;29.53;;;10.40;99.90;;;;;;5049552;28;20217;-51
2022/03/30 09:14:30;;;;;;;45.73;28.93;;;10.40;99.90;;;;;;5050026;28;20233;-51
2022/03/30 09:17:00;;;;;;;43.33;27.60;;;10.50;99.90;;;;;;5052763;28;20682;-51
2022/03/30 09:19:36;;;;;;;44.13;29.23;;;10.50;99.90;;;;;;5053430;28;20283;-51
2022/03/30 09:22:06;;;;;;;45.03;28.00;;;10.60;99.90;;;;;;5053095;28;21111;-51
2022/03/30 09:24:36;;;;;;;44.93;28.07;;;10.70;99.90;;;;;;5053223;28;20841;-51
2022/03/30 09:27:06;;;;;;;43.80;28.57;;;10.80;99.90;;;;;;5053317;28;20699;-50
2022/03/30 09:29:37;;;;;;;43.70;27.37;;;11.00;99.90;;;;;;5053013;28;20229;-51
2022/03/30 09:32:26;;;;;;;42.27;26.57;;;11.00;99.90;;;;;;5052705;28;20305;-51
2022/03/30 09:34:56;;;;;;;40.63;27.20;;;11.10;99.90;;;;;;5052898;28;20670;-51
2022/03/30 09:37:24;;;;;;;42.97;28.50;;;11.10;99.90;;;;;;5052072;28;20655;-51
2022/03/30 09:39:52;;;;;;;42.70;28.80;;;11.40;99.90;;;;;;5053141;28;20225;-51
2022/03/30 09:42:20;;;;;;;41.17;26.97;;;11.70;99.90;;;;;;5052484;28;20667;-51
2022/03/30 09:44:50;;;;;;;41.30;26.07;;;11.80;99.90;;;;;;5052881;28;20718;-50
2022/03/30 09:47:20;;;;;;;46.87;27.87;;;11.90;99.90;;;;;;5052900;28;20218;-51
2022/03/30 09:49:50;;;;;;;40.07;27.00;;;11.70;99.90;;;;;;5052858;28;20233;-51
2022/03/30 09:52:21;;;;;;;38.93;25.30;;;11.60;99.90;;;;;;5052370;28;20740;-51
2022/03/30 09:54:53;;;;;;;37.13;24.13;;;11.70;99.90;;;;;;5053024;28;20190;-49
2022/03/30 09:57:22;;;;;;;42.07;25.37;;;11.70;99.90;;;;;;5052559;28;20243;-51
2022/03/30 10:00:08;;;;;;;41.53;25.93;;;11.70;99.90;;;;;;5052605;28;20229;-51
2022/03/30 10:02:38;;;;;;;38.07;25.13;;;11.80;99.90;;;;;;5051420;28;20666;-51
2022/03/30 10:05:09;;;;;;;42.27;26.80;;;12.00;99.90;;;;;;5052662;28;20198;-51
2022/03/30 10:07:38;;;;;;;40.87;26.93;;;12.10;99.90;;;;;;5052166;28;20225;-50
2022/03/30 10:10:08;;;;;;;35.73;23.73;;;12.00;99.90;;;;;;5052513;28;20713;-51
2022/03/30 10:12:38;;;;;;;39.30;24.67;;;12.00;99.90;;;;;;5052515;28;20212;-51
2022/03/30 10:15:08;;;;;;;36.43;24.83;;;11.80;99.90;;;;;;5052583;28;20823;-51
2022/03/30 10:17:37;;;;;;;30.97;22.03;;;11.80;99.90;;;;;;5052352;28;20202;-51
2022/03/30 10:20:08;;;;;;;34.73;23.60;;;11.80;99.90;;;;;;5052501;28;20289;-51
2022/03/30 10:22:57;;;;;;;35.20;23.77;;;11.60;99.90;;;;;;5051939;28;20209;-51
2022/03/30 10:25:54;;;;;;;37.53;24.33;;;11.60;99.90;;;;;;5052800;28;20194;-51
2022/03/30 10:28:24;;;;;;;36.67;23.67;;;11.50;99.90;;;;;;5051305;28;20226;-51
2022/03/30 10:30:54;;;;;;;37.60;24.00;;;11.50;99.90;;;;;;5052395;28;20241;-51
2022/03/30 10:33:31;;;;;;;34.77;23.73;;;11.50;99.90;;;;;;5051882;28;20235;-51
2022/03/30 10:36:00;;;;;;;40.97;25.17;;;11.60;99.90;;;;;;5052631;28;20213;-51
2022/03/30 10:38:31;;;;;;;38.20;25.83;;;11.70;99.90;;;;;;5051370;28;20267;-51
2022/03/30 10:41:10;;;;;;;38.20;25.80;;;11.60;99.90;;;;;;5042121;28;20663;-51
2022/03/30 10:43:38;;;;;;;38.67;26.30;;;11.60;99.90;;;;;;5031756;28;20191;-51
2022/03/30 10:46:08;;;;;;;35.47;23.87;;;11.40;99.90;;;;;;5031261;28;20687;-51
2022/03/30 10:48:38;;;;;;;35.23;24.53;;;11.50;99.90;;;;;;5031873;28;20644;-51
2022/03/30 10:51:18;;;;;;;36.67;23.50;;;11.40;99.90;;;;;;5031298;28;20953;-51
2022/03/30 10:53:49;;;;;;;43.43;25.97;;;11.30;99.90;;;;;;5031437;28;20210;-50
2022/03/30 10:56:32;;;;;;;40.10;24.10;;;11.40;99.90;;;;;;5033715;28;20256;-52
2022/03/30 10:59:12;;;;;;;34.77;21.70;;;11.40;99.90;;;;;;5051600;28;20275;-51
2022/03/30 11:01:41;;;;;;;33.63;22.90;;;11.40;99.90;;;;;;5050803;28;20255;-51
2022/03/30 11:04:34;;;;;;;36.07;24.10;;;11.20;99.90;;;;;;5051243;28;20189;-51
2022/03/30 11:07:30;;;;;;;38.17;24.23;;;11.20;99.90;;;;;;5051468;28;20267;-51
2022/03/30 11:10:16;;;;;;;40.40;23.87;;;11.30;99.90;;;;;;5051402;28;20819;-51
2022/03/30 11:13:02;;;;;;;33.43;24.03;;;11.20;99.90;;;;;;5050722;28;20785;-50
2022/03/30 11:15:32;;;;;;;34.90;23.20;;;11.20;99.90;;;;;;5050204;28;20717;-52
2022/03/30 11:18:18;;;;;;;37.40;24.73;;;11.30;99.90;;;;;;5051288;28;20206;-51
2022/03/30 11:21:15;;;;;;;35.90;25.17;;;11.30;99.90;;;;;;5051067;28;20629;-51
2022/03/30 11:24:04;;;;;;;36.47;23.27;;;11.40;99.90;;;;;;5050895;28;20313;-51
2022/03/30 11:27:21;;;;;;;35.37;23.80;;;11.50;99.90;;;;;;5050712;28;20220;-52
2022/03/30 11:29:56;;;;;;;32.47;23.10;;;11.60;99.90;;;;;;5050869;28;20284;-52
2022/03/30 11:33:04;;;;;;;34.70;23.43;;;11.80;99.90;;;;;;5050375;28;20217;-51
2022/03/30 11:35:37;;;;;;;38.90;24.17;;;11.80;99.90;;;;;;5050674;28;20263;-51
2022/03/30 11:38:11;;;;;;;33.67;22.57;;;11.90;99.90;;;;;;5051334;28;20217;-50
2022/03/30 11:40:45;;;;;;;38.93;23.40;;;12.10;99.90;;;;;;5061711;28;20623;-51
2022/03/30 11:43:13;;;;;;;31.77;22.63;;;12.20;99.90;;;;;;5070722;28;20213;-51
2022/03/30 11:46:03;;;;;;;36.87;22.67;;;12.20;99.90;;;;;;5071102;28;20197;-51
2022/03/30 11:48:39;;;;;;;37.33;23.43;;;12.20;99.90;;;;;;5070854;28;20248;-51
2022/03/30 11:51:17;;;;;;;34.20;23.53;;;12.40;99.90;;;;;;5054174;28;20290;-50
2022/03/30 11:53:46;;;;;;;31.97;23.00;;;12.40;99.90;;;;;;5050428;28;20205;-51
2022/03/30 11:56:14;;;;;;;33.60;23.37;;;12.50;99.90;;;;;;5051062;28;20205;-50
2022/03/30 11:58:46;;;;;;;37.77;23.83;;;12.30;99.90;;;;;;5050468;28;20283;-50
2022/03/30 12:01:17;;;;;;;38.37;24.73;;;12.40;99.90;;;;;;5030750;28;20217;-50
2022/03/30 12:03:50;;;;;;;33.97;22.73;;;12.50;99.90;;;;;;5029587;28;20676;-50
2022/03/30 12:06:20;;;;;;;33.57;21.83;;;12.50;99.90;;;;;;5030579;28;20209;-50
2022/03/30 12:08:51;;;;;;;31.53;22.23;;;12.40;99.90;;;;;;5038228;28;20225;-50
2022/03/30 12:11:20;;;;;;;36.93;22.63;;;12.30;99.90;;;;;;5050649;28;20198;-50
2022/03/30 12:13:51;;;;;;;30.23;20.33;;;12.30;99.90;;;;;;5050245;28;20251;-50
2022/03/30 12:16:22;;;;;;;32.90;22.67;;;12.70;99.90;;;;;;5050248;28;20212;-50
2022/03/30 12:18:58;;;;;;;36.73;23.77;;;12.80;99.90;;;;;;5049793;28;20227;-51
2022/03/30 12:21:28;;;;;;;38.23;23.27;;;12.60;99.90;;;;;;5050408;28;20193;-50
2022/03/30 12:23:59;;;;;;;31.97;22.77;;;12.60;99.90;;;;;;5050474;28;20201;-50
2022/03/30 12:26:51;;;;;;;33.20;21.60;;;12.70;99.90;;;;;;5049817;28;20237;-50
2022/03/30 12:29:19;;;;;;;33.30;22.43;;;12.50;99.90;;;;;;5050603;28;20229;-51
2022/03/30 12:31:53;;;;;;;35.73;24.43;;;12.50;99.90;;;;;;5049436;28;20249;-51
2022/03/30 12:34:24;;;;;;;33.30;22.93;;;12.20;99.90;;;;;;5049837;28;20213;-50
2022/03/30 12:36:54;;;;;;;35.93;23.67;;;12.10;99.90;;;;;;5049134;28;20213;-51
2022/03/30 12:39:24;;;;;;;33.50;23.03;;;12.00;99.90;;;;;;5042151;28;20300;-50
2022/03/30 12:41:57;;;;;;;38.43;24.40;;;11.90;99.90;;;;;;5029532;28;20194;-51
2022/03/30 12:44:29;;;;;;;30.23;22.33;;;11.80;99.90;;;;;;5030494;28;20937;-50
2022/03/30 12:47:01;;;;;;;32.97;20.60;;;11.90;99.90;;;;;;5030075;28;20683;-50
2022/03/30 12:49:39;;;;;;;27.30;17.97;;;11.90;99.90;;;;;;5029629;28;20699;-51
2022/03/30 12:52:11;;;;;;;29.63;18.37;;;12.00;99.90;;;;;;5033417;28;20694;-51
2022/03/30 12:54:40;;;;;;;30.43;19.63;;;12.10;99.90;;;;;;5034180;28;20578;-52
2022/03/30 12:57:09;;;;;;;27.87;18.27;;;12.30;99.90;;;;;;5033593;28;20264;-52
2022/03/30 12:59:41;;;;;;;28.87;18.77;;;12.50;99.90;;;;;;5041463;28;20636;-53
2022/03/30 13:02:21;;;;;;;29.50;19.83;;;12.70;99.90;;;;;;5053392;28;20530;-53